sensor_id;sensor_type;location;lat;lon;timestamp;P1;durP1;ratioP1;P2;durP2;ratioP2
15035;SDS011;7615;48.574;13.474;2022-09-21T00:01:17;14.20;;;4.67;;
15035;SDS011;7615;48.574;13.474;2022-09-21T00:03:46;12.50;;;4.30;;
15035;SDS011;7615;48.574;13.474;2022-09-21T00:06:18;12.50;;;4.23;;
15035;SDS011;7615;48.574;13.474;2022-09-21T00:08:47;12.90;;;4.53;;
15035;SDS011;7615;48.574;13.474;2022-09-21T00:11:14;21.27;;;4.37;;
15035;SDS011;7615;48.574;13.474;2022-09-21T00:13:43;17.07;;;4.23;;
15035;SDS011;7615;48.574;13.474;2022-09-21T00:16:12;9.60;;;4.47;;
15035;SDS011;7615;48.574;13.474;2022-09-21T00:18:42;8.30;;;4.60;;
15035;SDS011;7615;48.574;13.474;2022-09-21T00:21:10;9.30;;;4.87;;
15035;SDS011;7615;48.574;13.474;2022-09-21T00:23:41;7.67;;;3.73;;
15035;SDS011;7615;48.574;13.474;2022-09-21T00:26:09;20.97;;;4.03;;
15035;SDS011;7615;48.574;13.474;2022-09-21T00:28:38;16.40;;;4.13;;
15035;SDS011;7615;48.574;13.474;2022-09-21T00:31:09;24.03;;;4.43;;
15035;SDS011;7615;48.574;13.474;2022-09-21T00:33:39;10.33;;;4.40;;
15035;SDS011;7615;48.574;13.474;2022-09-21T00:36:11;12.93;;;4.40;;
15035;SDS011;7615;48.574;13.474;2022-09-21T00:38:40;13.13;;;3.87;;
15035;SDS011;7615;48.574;13.474;2022-09-21T00:41:07;18.40;;;4.97;;
15035;SDS011;7615;48.574;13.474;2022-09-21T00:43:36;13.90;;;4.23;;
15035;SDS011;7615;48.574;13.474;2022-09-21T00:46:09;20.70;;;4.63;;
15035;SDS011;7615;48.574;13.474;2022-09-21T00:48:42;15.07;;;4.57;;
15035;SDS011;7615;48.574;13.474;2022-09-21T00:51:12;5.73;;;4.50;;
15035;SDS011;7615;48.574;13.474;2022-09-21T00:53:40;19.17;;;4.90;;
15035;SDS011;7615;48.574;13.474;2022-09-21T00:56:08;9.50;;;5.43;;
15035;SDS011;7615;48.574;13.474;2022-09-21T01:01:37;6.80;;;5.40;;
15035;SDS011;7615;48.574;13.474;2022-09-21T01:04:07;8.03;;;5.87;;
15035;SDS011;7615;48.574;13.474;2022-09-21T01:06:37;6.57;;;5.03;;
15035;SDS011;7615;48.574;13.474;2022-09-21T01:09:06;6.60;;;5.43;;
15035;SDS011;7615;48.574;13.474;2022-09-21T01:11:36;7.53;;;4.90;;
15035;SDS011;7615;48.574;13.474;2022-09-21T01:14:18;7.93;;;5.03;;
15035;SDS011;7615;48.574;13.474;2022-09-21T01:17:00;20.60;;;4.23;;
15035;SDS011;7615;48.574;13.474;2022-09-21T01:22:45;7.83;;;4.37;;
15035;SDS011;7615;48.574;13.474;2022-09-21T01:25:25;10.63;;;4.30;;
15035;SDS011;7615;48.574;13.474;2022-09-21T01:28:06;13.83;;;4.67;;
15035;SDS011;7615;48.574;13.474;2022-09-21T01:30:48;7.87;;;4.70;;
15035;SDS011;7615;48.574;13.474;2022-09-21T01:33:20;44.03;;;5.47;;
15035;SDS011;7615;48.574;13.474;2022-09-21T01:35:53;17.87;;;5.00;;
15035;SDS011;7615;48.574;13.474;2022-09-21T01:38:25;51.63;;;5.67;;
15035;SDS011;7615;48.574;13.474;2022-09-21T01:40:57;30.73;;;4.97;;
15035;SDS011;7615;48.574;13.474;2022-09-21T01:43:29;27.23;;;5.50;;
15035;SDS011;7615;48.574;13.474;2022-09-21T01:46:01;50.27;;;6.10;;
15035;SDS011;7615;48.574;13.474;2022-09-21T01:48:32;26.60;;;5.37;;
15035;SDS011;7615;48.574;13.474;2022-09-21T01:51:02;64.83;;;7.07;;
15035;SDS011;7615;48.574;13.474;2022-09-21T01:53:33;37.27;;;5.70;;
15035;SDS011;7615;48.574;13.474;2022-09-21T01:56:06;15.57;;;5.07;;
15035;SDS011;7615;48.574;13.474;2022-09-21T01:58:38;11.23;;;4.87;;
15035;SDS011;7615;48.574;13.474;2022-09-21T02:01:13;11.70;;;4.37;;
15035;SDS011;7615;48.574;13.474;2022-09-21T02:03:44;16.47;;;4.90;;
15035;SDS011;7615;48.574;13.474;2022-09-21T02:06:15;9.03;;;4.70;;
15035;SDS011;7615;48.574;13.474;2022-09-21T02:08:43;29.60;;;5.47;;
15035;SDS011;7615;48.574;13.474;2022-09-21T02:11:11;24.53;;;4.67;;
15035;SDS011;7615;48.574;13.474;2022-09-21T02:13:42;17.33;;;4.80;;
15035;SDS011;7615;48.574;13.474;2022-09-21T02:16:18;33.33;;;6.10;;
15035;SDS011;7615;48.574;13.474;2022-09-21T02:19:01;31.10;;;5.43;;
15035;SDS011;7615;48.574;13.474;2022-09-21T02:24:32;39.73;;;5.63;;
15035;SDS011;7615;48.574;13.474;2022-09-21T02:27:08;44.50;;;5.00;;
15035;SDS011;7615;48.574;13.474;2022-09-21T02:29:46;34.27;;;5.70;;
15035;SDS011;7615;48.574;13.474;2022-09-21T02:32:21;49.60;;;6.03;;
15035;SDS011;7615;48.574;13.474;2022-09-21T02:34:56;11.07;;;4.60;;
15035;SDS011;7615;48.574;13.474;2022-09-21T02:37:30;17.67;;;5.13;;
15035;SDS011;7615;48.574;13.474;2022-09-21T02:40:03;36.77;;;6.50;;
15035;SDS011;7615;48.574;13.474;2022-09-21T02:42:37;14.33;;;4.90;;
15035;SDS011;7615;48.574;13.474;2022-09-21T02:45:08;11.90;;;5.50;;
15035;SDS011;7615;48.574;13.474;2022-09-21T02:47:42;24.40;;;5.80;;
15035;SDS011;7615;48.574;13.474;2022-09-21T02:50:14;25.23;;;5.90;;
15035;SDS011;7615;48.574;13.474;2022-09-21T02:52:46;15.00;;;6.23;;
15035;SDS011;7615;48.574;13.474;2022-09-21T02:55:13;20.83;;;5.77;;
15035;SDS011;7615;48.574;13.474;2022-09-21T02:57:43;20.30;;;5.50;;
15035;SDS011;7615;48.574;13.474;2022-09-21T03:00:13;39.03;;;6.00;;
15035;SDS011;7615;48.574;13.474;2022-09-21T03:02:43;19.27;;;5.60;;
15035;SDS011;7615;48.574;13.474;2022-09-21T03:05:11;22.27;;;5.30;;
15035;SDS011;7615;48.574;13.474;2022-09-21T03:07:40;18.30;;;5.07;;
15035;SDS011;7615;48.574;13.474;2022-09-21T03:10:08;11.60;;;5.27;;
15035;SDS011;7615;48.574;13.474;2022-09-21T03:12:36;13.10;;;5.20;;
15035;SDS011;7615;48.574;13.474;2022-09-21T03:15:04;22.90;;;5.17;;
15035;SDS011;7615;48.574;13.474;2022-09-21T03:17:31;12.93;;;5.60;;
15035;SDS011;7615;48.574;13.474;2022-09-21T03:20:01;18.50;;;5.10;;
15035;SDS011;7615;48.574;13.474;2022-09-21T03:22:28;13.87;;;5.40;;
15035;SDS011;7615;48.574;13.474;2022-09-21T03:24:55;22.77;;;5.83;;
15035;SDS011;7615;48.574;13.474;2022-09-21T03:27:23;11.40;;;5.37;;
15035;SDS011;7615;48.574;13.474;2022-09-21T03:29:50;15.97;;;5.77;;
15035;SDS011;7615;48.574;13.474;2022-09-21T03:32:18;14.13;;;6.10;;
15035;SDS011;7615;48.574;13.474;2022-09-21T03:34:45;14.27;;;4.53;;
15035;SDS011;7615;48.574;13.474;2022-09-21T03:37:14;11.90;;;5.73;;
15035;SDS011;7615;48.574;13.474;2022-09-21T03:39:41;39.77;;;5.70;;
15035;SDS011;7615;48.574;13.474;2022-09-21T03:42:11;31.70;;;5.50;;
15035;SDS011;7615;48.574;13.474;2022-09-21T03:44:39;15.53;;;5.10;;
15035;SDS011;7615;48.574;13.474;2022-09-21T03:47:07;26.27;;;5.13;;
15035;SDS011;7615;48.574;13.474;2022-09-21T03:49:35;39.07;;;6.40;;
15035;SDS011;7615;48.574;13.474;2022-09-21T03:52:02;32.47;;;5.37;;
15035;SDS011;7615;48.574;13.474;2022-09-21T03:54:32;35.90;;;5.80;;
15035;SDS011;7615;48.574;13.474;2022-09-21T03:56:59;70.63;;;6.63;;
15035;SDS011;7615;48.574;13.474;2022-09-21T03:59:26;54.57;;;7.03;;
15035;SDS011;7615;48.574;13.474;2022-09-21T04:01:53;35.47;;;6.63;;
15035;SDS011;7615;48.574;13.474;2022-09-21T04:04:21;35.30;;;6.57;;
15035;SDS011;7615;48.574;13.474;2022-09-21T04:06:48;23.73;;;5.83;;
15035;SDS011;7615;48.574;13.474;2022-09-21T04:09:15;16.30;;;5.27;;
15035;SDS011;7615;48.574;13.474;2022-09-21T04:11:45;39.30;;;6.30;;
15035;SDS011;7615;48.574;13.474;2022-09-21T04:14:13;54.90;;;7.13;;
15035;SDS011;7615;48.574;13.474;2022-09-21T04:16:40;56.60;;;7.83;;
15035;SDS011;7615;48.574;13.474;2022-09-21T04:19:07;14.20;;;6.40;;
15035;SDS011;7615;48.574;13.474;2022-09-21T04:21:34;14.50;;;6.07;;
15035;SDS011;7615;48.574;13.474;2022-09-21T04:24:02;14.90;;;5.77;;
15035;SDS011;7615;48.574;13.474;2022-09-21T04:26:30;12.50;;;5.73;;
15035;SDS011;7615;48.574;13.474;2022-09-21T04:29:00;13.93;;;5.47;;
15035;SDS011;7615;48.574;13.474;2022-09-21T04:31:30;7.10;;;5.43;;
15035;SDS011;7615;48.574;13.474;2022-09-21T04:33:58;14.27;;;5.70;;
15035;SDS011;7615;48.574;13.474;2022-09-21T04:36:26;7.43;;;5.43;;
15035;SDS011;7615;48.574;13.474;2022-09-21T04:38:54;13.97;;;5.93;;
15035;SDS011;7615;48.574;13.474;2022-09-21T04:41:22;16.37;;;5.40;;
15035;SDS011;7615;48.574;13.474;2022-09-21T04:43:49;7.60;;;4.10;;
15035;SDS011;7615;48.574;13.474;2022-09-21T04:46:18;10.17;;;5.27;;
15035;SDS011;7615;48.574;13.474;2022-09-21T04:48:48;9.00;;;5.10;;
15035;SDS011;7615;48.574;13.474;2022-09-21T04:51:16;15.83;;;5.50;;
15035;SDS011;7615;48.574;13.474;2022-09-21T04:53:45;13.43;;;5.60;;
15035;SDS011;7615;48.574;13.474;2022-09-21T04:56:13;12.70;;;5.60;;
15035;SDS011;7615;48.574;13.474;2022-09-21T04:58:41;21.80;;;5.20;;
15035;SDS011;7615;48.574;13.474;2022-09-21T05:01:09;8.67;;;5.10;;
15035;SDS011;7615;48.574;13.474;2022-09-21T05:03:39;9.43;;;5.30;;
15035;SDS011;7615;48.574;13.474;2022-09-21T05:06:06;12.10;;;4.90;;
15035;SDS011;7615;48.574;13.474;2022-09-21T05:08:37;15.40;;;5.40;;
15035;SDS011;7615;48.574;13.474;2022-09-21T05:11:24;15.33;;;4.90;;
15035;SDS011;7615;48.574;13.474;2022-09-21T05:13:52;13.10;;;4.30;;
15035;SDS011;7615;48.574;13.474;2022-09-21T05:16:19;13.27;;;4.57;;
15035;SDS011;7615;48.574;13.474;2022-09-21T05:18:51;10.00;;;4.87;;
15035;SDS011;7615;48.574;13.474;2022-09-21T05:21:19;17.97;;;4.87;;
15035;SDS011;7615;48.574;13.474;2022-09-21T05:23:46;16.97;;;5.23;;
15035;SDS011;7615;48.574;13.474;2022-09-21T05:26:14;14.97;;;4.47;;
15035;SDS011;7615;48.574;13.474;2022-09-21T05:28:41;5.50;;;4.40;;
15035;SDS011;7615;48.574;13.474;2022-09-21T05:31:11;16.07;;;4.80;;
15035;SDS011;7615;48.574;13.474;2022-09-21T05:33:53;10.60;;;4.57;;
15035;SDS011;7615;48.574;13.474;2022-09-21T05:36:32;9.90;;;4.20;;
15035;SDS011;7615;48.574;13.474;2022-09-21T05:39:07;7.27;;;4.23;;
15035;SDS011;7615;48.574;13.474;2022-09-21T05:41:35;14.07;;;4.80;;
15035;SDS011;7615;48.574;13.474;2022-09-21T05:44:04;20.53;;;4.90;;
15035;SDS011;7615;48.574;13.474;2022-09-21T05:46:36;6.10;;;4.40;;
15035;SDS011;7615;48.574;13.474;2022-09-21T05:49:07;9.63;;;4.20;;
15035;SDS011;7615;48.574;13.474;2022-09-21T05:51:44;5.83;;;4.03;;
15035;SDS011;7615;48.574;13.474;2022-09-21T05:54:22;8.47;;;4.60;;
15035;SDS011;7615;48.574;13.474;2022-09-21T05:56:59;5.40;;;4.50;;
15035;SDS011;7615;48.574;13.474;2022-09-21T05:59:45;11.03;;;5.00;;
15035;SDS011;7615;48.574;13.474;2022-09-21T06:02:22;9.50;;;4.80;;
15035;SDS011;7615;48.574;13.474;2022-09-21T06:04:59;23.90;;;5.53;;
15035;SDS011;7615;48.574;13.474;2022-09-21T06:07:31;20.30;;;5.00;;
15035;SDS011;7615;48.574;13.474;2022-09-21T06:09:58;5.97;;;4.40;;
15035;SDS011;7615;48.574;13.474;2022-09-21T06:12:25;7.37;;;4.80;;
15035;SDS011;7615;48.574;13.474;2022-09-21T06:14:56;8.23;;;4.47;;
15035;SDS011;7615;48.574;13.474;2022-09-21T06:17:28;5.97;;;4.40;;
15035;SDS011;7615;48.574;13.474;2022-09-21T06:19:57;5.53;;;4.50;;
15035;SDS011;7615;48.574;13.474;2022-09-21T06:22:24;6.20;;;4.63;;
15035;SDS011;7615;48.574;13.474;2022-09-21T06:24:51;4.80;;;4.30;;
15035;SDS011;7615;48.574;13.474;2022-09-21T06:27:19;10.23;;;4.80;;
15035;SDS011;7615;48.574;13.474;2022-09-21T06:29:46;6.13;;;4.80;;
15035;SDS011;7615;48.574;13.474;2022-09-21T06:32:17;5.50;;;4.70;;
15035;SDS011;7615;48.574;13.474;2022-09-21T06:34:45;8.27;;;4.40;;
15035;SDS011;7615;48.574;13.474;2022-09-21T06:37:15;6.43;;;4.87;;
15035;SDS011;7615;48.574;13.474;2022-09-21T06:39:42;7.13;;;4.57;;
15035;SDS011;7615;48.574;13.474;2022-09-21T06:42:12;8.33;;;5.10;;
15035;SDS011;7615;48.574;13.474;2022-09-21T06:44:39;5.93;;;5.33;;
15035;SDS011;7615;48.574;13.474;2022-09-21T06:47:06;11.10;;;4.77;;
15035;SDS011;7615;48.574;13.474;2022-09-21T06:49:34;4.97;;;4.37;;
15035;SDS011;7615;48.574;13.474;2022-09-21T06:52:02;5.17;;;4.63;;
15035;SDS011;7615;48.574;13.474;2022-09-21T06:54:31;5.20;;;4.30;;
15035;SDS011;7615;48.574;13.474;2022-09-21T06:56:58;12.27;;;4.30;;
15035;SDS011;7615;48.574;13.474;2022-09-21T06:59:26;4.50;;;4.03;;
15035;SDS011;7615;48.574;13.474;2022-09-21T07:01:53;7.63;;;4.73;;
15035;SDS011;7615;48.574;13.474;2022-09-21T07:04:22;8.53;;;4.90;;
15035;SDS011;7615;48.574;13.474;2022-09-21T07:06:54;9.23;;;7.07;;
15035;SDS011;7615;48.574;13.474;2022-09-21T07:09:21;9.00;;;5.30;;
15035;SDS011;7615;48.574;13.474;2022-09-21T07:11:52;5.60;;;4.50;;
15035;SDS011;7615;48.574;13.474;2022-09-21T07:14:19;5.30;;;4.80;;
15035;SDS011;7615;48.574;13.474;2022-09-21T07:16:47;7.33;;;5.00;;
15035;SDS011;7615;48.574;13.474;2022-09-21T07:19:14;8.33;;;4.33;;
15035;SDS011;7615;48.574;13.474;2022-09-21T07:21:43;7.67;;;4.43;;
15035;SDS011;7615;48.574;13.474;2022-09-21T07:24:19;6.57;;;4.47;;
15035;SDS011;7615;48.574;13.474;2022-09-21T07:26:47;6.87;;;4.50;;
15035;SDS011;7615;48.574;13.474;2022-09-21T07:29:19;5.70;;;4.83;;
15035;SDS011;7615;48.574;13.474;2022-09-21T07:31:46;5.53;;;4.67;;
15035;SDS011;7615;48.574;13.474;2022-09-21T07:34:14;8.13;;;6.13;;
15035;SDS011;7615;48.574;13.474;2022-09-21T07:36:42;10.87;;;7.10;;
15035;SDS011;7615;48.574;13.474;2022-09-21T07:39:10;5.10;;;4.60;;
15035;SDS011;7615;48.574;13.474;2022-09-21T07:41:42;5.63;;;4.37;;
15035;SDS011;7615;48.574;13.474;2022-09-21T07:44:12;6.47;;;4.53;;
15035;SDS011;7615;48.574;13.474;2022-09-21T07:46:41;4.73;;;4.27;;
15035;SDS011;7615;48.574;13.474;2022-09-21T07:49:09;4.77;;;4.03;;
15035;SDS011;7615;48.574;13.474;2022-09-21T07:51:39;4.50;;;4.10;;
15035;SDS011;7615;48.574;13.474;2022-09-21T07:54:07;4.47;;;3.97;;
15035;SDS011;7615;48.574;13.474;2022-09-21T07:56:36;4.77;;;3.83;;
15035;SDS011;7615;48.574;13.474;2022-09-21T07:59:04;11.70;;;3.67;;
15035;SDS011;7615;48.574;13.474;2022-09-21T08:01:32;4.50;;;4.07;;
15035;SDS011;7615;48.574;13.474;2022-09-21T08:04:01;4.67;;;4.00;;
15035;SDS011;7615;48.574;13.474;2022-09-21T08:06:30;4.23;;;3.87;;
15035;SDS011;7615;48.574;13.474;2022-09-21T08:09:00;3.43;;;3.13;;
15035;SDS011;7615;48.574;13.474;2022-09-21T08:11:29;6.27;;;4.27;;
15035;SDS011;7615;48.574;13.474;2022-09-21T08:13:58;3.97;;;3.57;;
15035;SDS011;7615;48.574;13.474;2022-09-21T08:16:28;4.80;;;3.83;;
15035;SDS011;7615;48.574;13.474;2022-09-21T08:18:56;4.27;;;3.87;;
15035;SDS011;7615;48.574;13.474;2022-09-21T08:21:25;5.27;;;3.93;;
15035;SDS011;7615;48.574;13.474;2022-09-21T08:23:52;4.40;;;4.00;;
15035;SDS011;7615;48.574;13.474;2022-09-21T08:26:20;5.10;;;4.43;;
15035;SDS011;7615;48.574;13.474;2022-09-21T08:31:49;4.57;;;4.17;;
15035;SDS011;7615;48.574;13.474;2022-09-21T08:34:17;5.63;;;4.50;;
15035;SDS011;7615;48.574;13.474;2022-09-21T08:36:52;4.70;;;4.20;;
15035;SDS011;7615;48.574;13.474;2022-09-21T08:39:19;5.23;;;3.93;;
15035;SDS011;7615;48.574;13.474;2022-09-21T08:41:51;4.37;;;3.80;;
15035;SDS011;7615;48.574;13.474;2022-09-21T08:44:38;3.33;;;3.13;;
15035;SDS011;7615;48.574;13.474;2022-09-21T08:47:10;8.30;;;5.33;;
15035;SDS011;7615;48.574;13.474;2022-09-21T08:49:40;9.80;;;7.93;;
15035;SDS011;7615;48.574;13.474;2022-09-21T08:52:15;3.97;;;3.57;;
15035;SDS011;7615;48.574;13.474;2022-09-21T08:54:46;3.33;;;3.03;;
15035;SDS011;7615;48.574;13.474;2022-09-21T08:57:19;3.37;;;3.10;;
15035;SDS011;7615;48.574;13.474;2022-09-21T08:59:49;3.50;;;3.07;;
15035;SDS011;7615;48.574;13.474;2022-09-21T09:02:27;3.70;;;3.40;;
15035;SDS011;7615;48.574;13.474;2022-09-21T09:05:06;3.30;;;3.03;;
15035;SDS011;7615;48.574;13.474;2022-09-21T09:08:03;4.73;;;3.43;;
15035;SDS011;7615;48.574;13.474;2022-09-21T09:10:49;3.80;;;3.50;;
15035;SDS011;7615;48.574;13.474;2022-09-21T09:13:32;3.50;;;3.17;;
15035;SDS011;7615;48.574;13.474;2022-09-21T09:16:17;3.50;;;3.20;;
15035;SDS011;7615;48.574;13.474;2022-09-21T09:18:50;4.20;;;3.30;;
15035;SDS011;7615;48.574;13.474;2022-09-21T09:21:21;3.97;;;3.57;;
15035;SDS011;7615;48.574;13.474;2022-09-21T09:23:57;3.63;;;3.33;;
15035;SDS011;7615;48.574;13.474;2022-09-21T09:26:29;4.60;;;3.60;;
15035;SDS011;7615;48.574;13.474;2022-09-21T09:29:01;3.90;;;3.50;;
15035;SDS011;7615;48.574;13.474;2022-09-21T09:31:32;3.40;;;3.10;;
15035;SDS011;7615;48.574;13.474;2022-09-21T09:34:07;5.23;;;3.47;;
15035;SDS011;7615;48.574;13.474;2022-09-21T09:36:38;6.07;;;3.20;;
15035;SDS011;7615;48.574;13.474;2022-09-21T09:39:11;4.43;;;3.30;;
15035;SDS011;7615;48.574;13.474;2022-09-21T09:41:45;6.00;;;3.03;;
15035;SDS011;7615;48.574;13.474;2022-09-21T09:44:52;3.30;;;3.00;;
15035;SDS011;7615;48.574;13.474;2022-09-21T09:47:31;5.13;;;3.27;;
15035;SDS011;7615;48.574;13.474;2022-09-21T09:50:10;3.43;;;3.13;;
15035;SDS011;7615;48.574;13.474;2022-09-21T09:52:45;4.53;;;3.00;;
15035;SDS011;7615;48.574;13.474;2022-09-21T09:55:19;3.80;;;3.13;;
15035;SDS011;7615;48.574;13.474;2022-09-21T09:57:50;3.80;;;3.50;;
15035;SDS011;7615;48.574;13.474;2022-09-21T10:00:21;3.50;;;3.20;;
15035;SDS011;7615;48.574;13.474;2022-09-21T10:02:49;3.60;;;3.30;;
15035;SDS011;7615;48.574;13.474;2022-09-21T10:05:20;3.30;;;3.00;;
15035;SDS011;7615;48.574;13.474;2022-09-21T10:07:49;3.00;;;2.80;;
15035;SDS011;7615;48.574;13.474;2022-09-21T10:10:30;4.10;;;3.03;;
15035;SDS011;7615;48.574;13.474;2022-09-21T10:13:10;4.20;;;3.53;;
15035;SDS011;7615;48.574;13.474;2022-09-21T10:15:46;8.33;;;6.03;;
15035;SDS011;7615;48.574;13.474;2022-09-21T10:18:20;12.67;;;8.30;;
15035;SDS011;7615;48.574;13.474;2022-09-21T10:20:56;4.30;;;3.80;;
15035;SDS011;7615;48.574;13.474;2022-09-21T10:23:26;3.50;;;3.20;;
15035;SDS011;7615;48.574;13.474;2022-09-21T10:26:01;3.73;;;3.07;;
15035;SDS011;7615;48.574;13.474;2022-09-21T10:28:33;4.90;;;3.07;;
15035;SDS011;7615;48.574;13.474;2022-09-21T10:31:07;2.97;;;2.63;;
15035;SDS011;7615;48.574;13.474;2022-09-21T10:33:47;3.37;;;3.07;;
15035;SDS011;7615;48.574;13.474;2022-09-21T10:36:23;3.63;;;2.97;;
15035;SDS011;7615;48.574;13.474;2022-09-21T10:38:57;3.30;;;3.00;;
15035;SDS011;7615;48.574;13.474;2022-09-21T10:41:53;3.20;;;3.00;;
15035;SDS011;7615;48.574;13.474;2022-09-21T10:44:26;6.50;;;3.40;;
15035;SDS011;7615;48.574;13.474;2022-09-21T10:46:58;2.95;;;2.75;;
15035;SDS011;7615;48.574;13.474;2022-09-21T10:49:34;3.55;;;3.25;;
15035;SDS011;7615;48.574;13.474;2022-09-21T10:52:02;3.25;;;3.05;;
15035;SDS011;7615;48.574;13.474;2022-09-21T10:54:30;5.40;;;3.17;;
15035;SDS011;7615;48.574;13.474;2022-09-21T10:57:01;3.97;;;3.10;;
15035;SDS011;7615;48.574;13.474;2022-09-21T10:59:33;2.90;;;2.67;;
15035;SDS011;7615;48.574;13.474;2022-09-21T11:05:06;4.47;;;3.22;;
15035;SDS011;7615;48.574;13.474;2022-09-21T11:07:42;4.38;;;3.45;;
15035;SDS011;7615;48.574;13.474;2022-09-21T11:10:17;5.20;;;3.08;;
15035;SDS011;7615;48.574;13.474;2022-09-21T11:12:57;3.90;;;2.72;;
15035;SDS011;7615;48.574;13.474;2022-09-21T11:15:39;3.50;;;3.20;;
15035;SDS011;7615;48.574;13.474;2022-09-21T11:18:14;4.90;;;2.50;;
15035;SDS011;7615;48.574;13.474;2022-09-21T11:20:46;3.10;;;2.90;;
15035;SDS011;7615;48.574;13.474;2022-09-21T11:23:20;3.13;;;2.92;;
15035;SDS011;7615;48.574;13.474;2022-09-21T11:25:54;2.90;;;2.70;;
15035;SDS011;7615;48.574;13.474;2022-09-21T11:28:31;4.28;;;2.72;;
15035;SDS011;7615;48.574;13.474;2022-09-21T11:31:11;3.28;;;2.97;;
15035;SDS011;7615;48.574;13.474;2022-09-21T11:34:17;2.90;;;2.70;;
15035;SDS011;7615;48.574;13.474;2022-09-21T11:36:54;4.80;;;2.50;;
15035;SDS011;7615;48.574;13.474;2022-09-21T11:39:38;2.78;;;2.45;;
15035;SDS011;7615;48.574;13.474;2022-09-21T11:42:18;3.67;;;2.17;;
15035;SDS011;7615;48.574;13.474;2022-09-21T11:44:56;3.25;;;2.40;;
15035;SDS011;7615;48.574;13.474;2022-09-21T11:47:44;4.28;;;2.92;;
15035;SDS011;7615;48.574;13.474;2022-09-21T11:50:30;5.38;;;2.70;;
15035;SDS011;7615;48.574;13.474;2022-09-21T11:53:15;2.88;;;2.67;;
15035;SDS011;7615;48.574;13.474;2022-09-21T11:56:01;3.22;;;2.90;;
15035;SDS011;7615;48.574;13.474;2022-09-21T11:58:46;2.97;;;2.70;;
15035;SDS011;7615;48.574;13.474;2022-09-21T12:01:30;3.33;;;2.30;;
15035;SDS011;7615;48.574;13.474;2022-09-21T12:07:12;4.82;;;2.65;;
15035;SDS011;7615;48.574;13.474;2022-09-21T12:09:57;2.55;;;2.35;;
15035;SDS011;7615;48.574;13.474;2022-09-21T12:12:35;3.00;;;2.47;;
15035;SDS011;7615;48.574;13.474;2022-09-21T12:15:09;3.28;;;2.22;;
15035;SDS011;7615;48.574;13.474;2022-09-21T12:17:45;2.88;;;2.35;;
15035;SDS011;7615;48.574;13.474;2022-09-21T12:20:22;2.35;;;2.15;;
15035;SDS011;7615;48.574;13.474;2022-09-21T12:22:58;2.70;;;2.30;;
15035;SDS011;7615;48.574;13.474;2022-09-21T12:25:31;2.75;;;2.10;;
15035;SDS011;7615;48.574;13.474;2022-09-21T12:28:04;2.20;;;2.00;;
15035;SDS011;7615;48.574;13.474;2022-09-21T12:30:38;1.95;;;1.80;;
15035;SDS011;7615;48.574;13.474;2022-09-21T12:33:13;7.75;;;2.13;;
15035;SDS011;7615;48.574;13.474;2022-09-21T12:35:48;2.67;;;1.88;;
15035;SDS011;7615;48.574;13.474;2022-09-21T12:38:21;2.03;;;1.80;;
15035;SDS011;7615;48.574;13.474;2022-09-21T12:40:54;2.13;;;2.03;;
15035;SDS011;7615;48.574;13.474;2022-09-21T12:43:35;2.58;;;1.80;;
15035;SDS011;7615;48.574;13.474;2022-09-21T12:46:08;1.85;;;1.60;;
15035;SDS011;7615;48.574;13.474;2022-09-21T12:48:40;2.47;;;1.67;;
15035;SDS011;7615;48.574;13.474;2022-09-21T12:51:11;2.13;;;1.40;;
15035;SDS011;7615;48.574;13.474;2022-09-21T12:53:42;3.33;;;1.42;;
15035;SDS011;7615;48.574;13.474;2022-09-21T12:56:14;1.52;;;1.42;;
15035;SDS011;7615;48.574;13.474;2022-09-21T12:58:55;2.50;;;2.28;;
15035;SDS011;7615;48.574;13.474;2022-09-21T13:01:40;1.90;;;1.80;;
15035;SDS011;7615;48.574;13.474;2022-09-21T13:04:22;1.95;;;1.80;;
15035;SDS011;7615;48.574;13.474;2022-09-21T13:07:18;2.28;;;1.70;;
15035;SDS011;7615;48.574;13.474;2022-09-21T13:09:58;3.08;;;1.70;;
15035;SDS011;7615;48.574;13.474;2022-09-21T13:12:28;1.70;;;1.60;;
15035;SDS011;7615;48.574;13.474;2022-09-21T13:15:11;2.03;;;1.52;;
15035;SDS011;7615;48.574;13.474;2022-09-21T13:17:40;1.63;;;1.52;;
15035;SDS011;7615;48.574;13.474;2022-09-21T13:20:16;1.75;;;1.60;;
15035;SDS011;7615;48.574;13.474;2022-09-21T13:22:46;1.40;;;1.30;;
15035;SDS011;7615;48.574;13.474;2022-09-21T13:25:18;2.70;;;1.27;;
15035;SDS011;7615;48.574;13.474;2022-09-21T13:27:55;2.05;;;1.80;;
15035;SDS011;7615;48.574;13.474;2022-09-21T13:30:37;1.50;;;0.80;;
15035;SDS011;7615;48.574;13.474;2022-09-21T13:33:29;1.17;;;1.00;;
15035;SDS011;7615;48.574;13.474;2022-09-21T13:39:11;1.38;;;1.27;;
15035;SDS011;7615;48.574;13.474;2022-09-21T13:44:45;1.30;;;1.17;;
15035;SDS011;7615;48.574;13.474;2022-09-21T13:47:12;1.17;;;1.08;;
15035;SDS011;7615;48.574;13.474;2022-09-21T13:49:48;1.30;;;1.20;;
15035;SDS011;7615;48.574;13.474;2022-09-21T13:52:34;1.95;;;1.00;;
15035;SDS011;7615;48.574;13.474;2022-09-21T13:55:05;2.13;;;1.30;;
15035;SDS011;7615;48.574;13.474;2022-09-21T13:57:48;1.73;;;1.27;;
15035;SDS011;7615;48.574;13.474;2022-09-21T14:03:17;1.92;;;1.55;;
15035;SDS011;7615;48.574;13.474;2022-09-21T14:06:02;1.27;;;1.17;;
15035;SDS011;7615;48.574;13.474;2022-09-21T14:08:34;1.48;;;1.05;;
15035;SDS011;7615;48.574;13.474;2022-09-21T14:11:06;1.55;;;1.30;;
15035;SDS011;7615;48.574;13.474;2022-09-21T14:13:36;2.28;;;1.20;;
15035;SDS011;7615;48.574;13.474;2022-09-21T14:22:38;3.67;;;2.05;;
15035;SDS011;7615;48.574;13.474;2022-09-21T14:25:46;2.92;;;1.45;;
15035;SDS011;7615;48.574;13.474;2022-09-21T14:28:17;2.90;;;1.00;;
15035;SDS011;7615;48.574;13.474;2022-09-21T14:30:54;1.10;;;1.00;;
15035;SDS011;7615;48.574;13.474;2022-09-21T14:33:29;0.80;;;0.80;;
15035;SDS011;7615;48.574;13.474;2022-09-21T14:36:07;1.45;;;0.80;;
15035;SDS011;7615;48.574;13.474;2022-09-21T14:38:39;0.82;;;0.70;;
15035;SDS011;7615;48.574;13.474;2022-09-21T14:41:16;0.95;;;0.82;;
15035;SDS011;7615;48.574;13.474;2022-09-21T14:43:48;0.60;;;0.60;;
15035;SDS011;7615;48.574;13.474;2022-09-21T14:46:30;0.93;;;0.70;;
15035;SDS011;7615;48.574;13.474;2022-09-21T14:49:15;1.70;;;1.00;;
15035;SDS011;7615;48.574;13.474;2022-09-21T14:51:59;0.80;;;0.80;;
15035;SDS011;7615;48.574;13.474;2022-09-21T14:54:37;1.10;;;0.70;;
15035;SDS011;7615;48.574;13.474;2022-09-21T14:57:17;1.10;;;1.00;;
15035;SDS011;7615;48.574;13.474;2022-09-21T15:00:17;0.80;;;0.77;;
15035;SDS011;7615;48.574;13.474;2022-09-21T15:02:48;1.23;;;1.13;;
15035;SDS011;7615;48.574;13.474;2022-09-21T15:05:28;1.27;;;1.17;;
15035;SDS011;7615;48.574;13.474;2022-09-21T15:08:09;1.08;;;0.95;;
15035;SDS011;7615;48.574;13.474;2022-09-21T15:11:05;1.25;;;1.10;;
15035;SDS011;7615;48.574;13.474;2022-09-21T15:13:49;1.35;;;0.90;;
15035;SDS011;7615;48.574;13.474;2022-09-21T15:16:24;0.63;;;0.63;;
15035;SDS011;7615;48.574;13.474;2022-09-21T15:19:21;0.68;;;0.60;;
15035;SDS011;7615;48.574;13.474;2022-09-21T15:21:50;0.70;;;0.70;;
15035;SDS011;7615;48.574;13.474;2022-09-21T15:24:21;1.02;;;0.90;;
15035;SDS011;7615;48.574;13.474;2022-09-21T15:26:53;2.15;;;0.70;;
15035;SDS011;7615;48.574;13.474;2022-09-21T15:29:29;0.80;;;0.70;;
15035;SDS011;7615;48.574;13.474;2022-09-21T15:31:58;1.42;;;0.70;;
15035;SDS011;7615;48.574;13.474;2022-09-21T15:34:26;0.60;;;0.60;;
15035;SDS011;7615;48.574;13.474;2022-09-21T15:37:04;0.80;;;0.80;;
15035;SDS011;7615;48.574;13.474;2022-09-21T15:39:33;0.80;;;0.80;;
15035;SDS011;7615;48.574;13.474;2022-09-21T15:42:11;0.77;;;0.77;;
15035;SDS011;7615;48.574;13.474;2022-09-21T15:44:48;1.08;;;0.98;;
15035;SDS011;7615;48.574;13.474;2022-09-21T15:47:20;1.60;;;1.50;;
15035;SDS011;7615;48.574;13.474;2022-09-21T15:49:50;1.63;;;1.52;;
15035;SDS011;7615;48.574;13.474;2022-09-21T15:52:22;1.88;;;1.40;;